sensor_id;sensor_type;location;lat;lon;timestamp;pressure;altitude;pressure_sealevel;temperature;humidity
30021;BME280;16861;52.294;7.760;2022-12-18T00:01:12;101059.47;;;-3.30;61.93
30021;BME280;16861;52.294;7.760;2022-12-18T00:03:39;101055.22;;;-3.28;61.72
30021;BME280;16861;52.294;7.760;2022-12-18T00:06:07;101059.59;;;-3.23;61.70
30021;BME280;16861;52.294;7.760;2022-12-18T00:08:34;101057.97;;;-3.20;61.50
30021;BME280;16861;52.294;7.760;2022-12-18T00:11:05;101052.84;;;-3.18;61.61
30021;BME280;16861;52.294;7.760;2022-12-18T00:13:32;101052.94;;;-3.14;62.02
30021;BME280;16861;52.294;7.760;2022-12-18T00:16:03;101057.25;;;-3.12;62.26
30021;BME280;16861;52.294;7.760;2022-12-18T00:18:31;101055.63;;;-3.09;61.64
30021;BME280;16861;52.294;7.760;2022-12-18T00:21:02;101048.75;;;-3.08;62.06
30021;BME280;16861;52.294;7.760;2022-12-18T00:23:30;101047.06;;;-3.06;62.00
30021;BME280;16861;52.294;7.760;2022-12-18T00:26:01;101047.13;;;-3.05;61.62
30021;BME280;16861;52.294;7.760;2022-12-18T00:28:28;101046.28;;;-3.04;61.81
30021;BME280;16861;52.294;7.760;2022-12-18T00:31:24;101048.00;;;-3.03;62.79
30021;BME280;16861;52.294;7.760;2022-12-18T00:33:51;101042.06;;;-2.98;62.05
30021;BME280;16861;52.294;7.760;2022-12-18T00:36:22;101040.41;;;-2.96;61.71
30021;BME280;16861;52.294;7.760;2022-12-18T00:38:49;101040.41;;;-2.95;61.59
30021;BME280;16861;52.294;7.760;2022-12-18T00:41:17;101042.22;;;-2.92;61.75
30021;BME280;16861;52.294;7.760;2022-12-18T00:44:04;101039.63;;;-2.91;61.88
30021;BME280;16861;52.294;7.760;2022-12-18T00:46:32;101029.38;;;-2.89;62.07
30021;BME280;16861;52.294;7.760;2022-12-18T00:48:58;101034.59;;;-2.86;62.13
30021;BME280;16861;52.294;7.760;2022-12-18T00:51:25;101032.03;;;-2.84;62.05
30021;BME280;16861;52.294;7.760;2022-12-18T00:53:52;101032.88;;;-2.84;61.47
30021;BME280;16861;52.294;7.760;2022-12-18T00:56:18;101038.91;;;-2.83;61.39
30021;BME280;16861;52.294;7.760;2022-12-18T00:58:45;101043.22;;;-2.82;62.01
30021;BME280;16861;52.294;7.760;2022-12-18T01:01:11;101051.00;;;-2.81;61.86
30021;BME280;16861;52.294;7.760;2022-12-18T01:03:37;101050.16;;;-2.80;61.87
30021;BME280;16861;52.294;7.760;2022-12-18T01:06:07;101058.81;;;-2.76;61.54
30021;BME280;16861;52.294;7.760;2022-12-18T01:08:34;101046.84;;;-2.72;62.12
30021;BME280;16861;52.294;7.760;2022-12-18T01:11:06;101041.69;;;-2.72;61.60
30021;BME280;16861;52.294;7.760;2022-12-18T01:13:33;101037.47;;;-2.69;61.31
30021;BME280;16861;52.294;7.760;2022-12-18T01:15:59;101034.94;;;-2.66;61.34
30021;BME280;16861;52.294;7.760;2022-12-18T01:18:26;101028.09;;;-2.65;61.52
30021;BME280;16861;52.294;7.760;2022-12-18T01:23:33;101032.44;;;-2.63;61.43
30021;BME280;16861;52.294;7.760;2022-12-18T01:26:12;101041.03;;;-2.64;61.86
30021;BME280;16861;52.294;7.760;2022-12-18T01:28:40;101042.81;;;-2.59;61.38
30021;BME280;16861;52.294;7.760;2022-12-18T01:33:36;101042.00;;;-2.57;61.17
30021;BME280;16861;52.294;7.760;2022-12-18T01:36:04;101033.41;;;-2.56;61.44
30021;BME280;16861;52.294;7.760;2022-12-18T01:38:30;101027.41;;;-2.55;61.44
30021;BME280;16861;52.294;7.760;2022-12-18T01:40:58;101038.59;;;-2.54;61.57
30021;BME280;16861;52.294;7.760;2022-12-18T01:46:07;101031.78;;;-2.51;61.86
30021;BME280;16861;52.294;7.760;2022-12-18T01:48:34;101032.69;;;-2.49;61.06
30021;BME280;16861;52.294;7.760;2022-12-18T01:51:01;101046.47;;;-2.46;61.03
30021;BME280;16861;52.294;7.760;2022-12-18T01:53:28;101052.47;;;-2.47;61.62
30021;BME280;16861;52.294;7.760;2022-12-18T01:55:56;101063.63;;;-2.47;61.41
30021;BME280;16861;52.294;7.760;2022-12-18T01:58:51;101063.63;;;-2.47;61.60
30021;BME280;16861;52.294;7.760;2022-12-18T02:01:22;101072.25;;;-2.46;61.15
30021;BME280;16861;52.294;7.760;2022-12-18T02:03:49;101068.78;;;-2.47;61.44
30021;BME280;16861;52.294;7.760;2022-12-18T02:06:30;101066.22;;;-2.47;61.31
30021;BME280;16861;52.294;7.760;2022-12-18T02:09:13;101064.53;;;-2.45;61.61
30021;BME280;16861;52.294;7.760;2022-12-18T02:14:40;101056.00;;;-2.42;61.96
30021;BME280;16861;52.294;7.760;2022-12-18T02:17:18;101054.28;;;-2.40;61.83
30021;BME280;16861;52.294;7.760;2022-12-18T02:22:40;101038.03;;;-2.38;61.96
30021;BME280;16861;52.294;7.760;2022-12-18T02:28:15;101045.84;;;-2.33;61.26
30021;BME280;16861;52.294;7.760;2022-12-18T02:30:47;101048.44;;;-2.31;61.48
30021;BME280;16861;52.294;7.760;2022-12-18T02:33:15;101048.47;;;-2.30;61.78
30021;BME280;16861;52.294;7.760;2022-12-18T02:35:45;101053.66;;;-2.28;61.17
30021;BME280;16861;52.294;7.760;2022-12-18T02:38:14;101057.13;;;-2.26;61.46
30021;BME280;16861;52.294;7.760;2022-12-18T02:40:42;101044.25;;;-2.25;61.73
30021;BME280;16861;52.294;7.760;2022-12-18T02:43:12;101041.75;;;-2.21;61.47
30021;BME280;16861;52.294;7.760;2022-12-18T02:45:53;101042.59;;;-2.21;61.69
30021;BME280;16861;52.294;7.760;2022-12-18T02:48:27;101042.69;;;-2.16;61.61
30021;BME280;16861;52.294;7.760;2022-12-18T02:51:05;101033.22;;;-2.14;61.40
30021;BME280;16861;52.294;7.760;2022-12-18T02:53:44;101044.47;;;-2.12;61.72
30021;BME280;16861;52.294;7.760;2022-12-18T02:56:16;101041.94;;;-2.09;61.67
30021;BME280;16861;52.294;7.760;2022-12-18T02:59:02;101039.34;;;-2.07;61.71
30021;BME280;16861;52.294;7.760;2022-12-18T03:01:38;101042.88;;;-2.04;61.39
30021;BME280;16861;52.294;7.760;2022-12-18T03:04:36;101042.03;;;-2.03;61.65
30021;BME280;16861;52.294;7.760;2022-12-18T03:07:14;101029.19;;;-2.00;61.26
30021;BME280;16861;52.294;7.760;2022-12-18T03:09:44;101029.22;;;-1.98;61.03
30021;BME280;16861;52.294;7.760;2022-12-18T03:12:26;101039.50;;;-2.00;61.33
30021;BME280;16861;52.294;7.760;2022-12-18T03:15:12;101037.78;;;-1.99;61.19
30021;BME280;16861;52.294;7.760;2022-12-18T03:17:48;101036.06;;;-1.99;61.37
30021;BME280;16861;52.294;7.760;2022-12-18T03:20:19;101036.06;;;-1.99;60.91
30021;BME280;16861;52.294;7.760;2022-12-18T03:22:50;101030.94;;;-1.97;61.15
30021;BME280;16861;52.294;7.760;2022-12-18T03:25:19;101039.53;;;-1.97;61.32
30021;BME280;16861;52.294;7.760;2022-12-18T03:27:49;101035.25;;;-1.96;61.24
30021;BME280;16861;52.294;7.760;2022-12-18T03:30:18;101040.47;;;-1.93;61.33
30021;BME280;16861;52.294;7.760;2022-12-18T03:32:47;101035.34;;;-1.91;61.20
30021;BME280;16861;52.294;7.760;2022-12-18T03:35:19;101037.06;;;-1.90;61.19
30021;BME280;16861;52.294;7.760;2022-12-18T03:37:48;101043.97;;;-1.88;61.20
30021;BME280;16861;52.294;7.760;2022-12-18T03:40:14;101047.44;;;-1.86;61.08
30021;BME280;16861;52.294;7.760;2022-12-18T03:42:53;101046.56;;;-1.88;61.31
30021;BME280;16861;52.294;7.760;2022-12-18T03:45:37;101038.00;;;-1.85;61.51
30021;BME280;16861;52.294;7.760;2022-12-18T03:48:13;101029.41;;;-1.84;61.43
30021;BME280;16861;52.294;7.760;2022-12-18T03:50:48;101032.84;;;-1.85;61.31
30021;BME280;16861;52.294;7.760;2022-12-18T03:55:51;101032.88;;;-1.82;60.66
30021;BME280;16861;52.294;7.760;2022-12-18T03:58:24;101031.09;;;-1.86;61.25
30021;BME280;16861;52.294;7.760;2022-12-18T04:00:54;101025.09;;;-1.85;60.83
30021;BME280;16861;52.294;7.760;2022-12-18T04:03:22;101029.41;;;-1.84;60.94
30021;BME280;16861;52.294;7.760;2022-12-18T04:05:54;101030.28;;;-1.84;61.17
30021;BME280;16861;52.294;7.760;2022-12-18T04:08:22;101034.56;;;-1.84;60.87
30021;BME280;16861;52.294;7.760;2022-12-18T04:10:50;101035.41;;;-1.85;60.82
30021;BME280;16861;52.294;7.760;2022-12-18T04:13:43;101025.88;;;-1.89;61.13
30021;BME280;16861;52.294;7.760;2022-12-18T04:16:09;101025.94;;;-1.86;60.61
30021;BME280;16861;52.294;7.760;2022-12-18T04:18:36;101025.94;;;-1.86;60.90
30021;BME280;16861;52.294;7.760;2022-12-18T04:21:03;101022.47;;;-1.87;61.01
30021;BME280;16861;52.294;7.760;2022-12-18T04:23:30;101028.53;;;-1.86;61.12
30021;BME280;16861;52.294;7.760;2022-12-18T04:25:56;101034.56;;;-1.84;60.95
30021;BME280;16861;52.294;7.760;2022-12-18T04:28:23;101034.59;;;-1.83;60.82
30021;BME280;16861;52.294;7.760;2022-12-18T04:30:49;101030.31;;;-1.82;60.87
30021;BME280;16861;52.294;7.760;2022-12-18T04:33:16;101032.03;;;-1.81;60.55
30021;BME280;16861;52.294;7.760;2022-12-18T04:35:43;101022.59;;;-1.80;60.40
30021;BME280;16861;52.294;7.760;2022-12-18T04:38:10;101025.16;;;-1.80;60.63
30021;BME280;16861;52.294;7.760;2022-12-18T04:40:37;101021.72;;;-1.79;60.86
30021;BME280;16861;52.294;7.760;2022-12-18T04:43:04;101021.72;;;-1.79;60.62
30021;BME280;16861;52.294;7.760;2022-12-18T04:45:31;101025.19;;;-1.79;60.49
30021;BME280;16861;52.294;7.760;2022-12-18T04:47:59;101020.03;;;-1.77;60.59
30021;BME280;16861;52.294;7.760;2022-12-18T04:50:25;101012.28;;;-1.79;60.41
30021;BME280;16861;52.294;7.760;2022-12-18T04:52:52;101011.44;;;-1.78;60.74
30021;BME280;16861;52.294;7.760;2022-12-18T04:55:19;101015.72;;;-1.78;60.27
30021;BME280;16861;52.294;7.760;2022-12-18T04:57:46;101011.41;;;-1.79;60.62
30021;BME280;16861;52.294;7.760;2022-12-18T05:00:13;101009.69;;;-1.80;60.44
30021;BME280;16861;52.294;7.760;2022-12-18T05:02:40;101015.69;;;-1.80;60.27
30021;BME280;16861;52.294;7.760;2022-12-18T05:05:07;101026.00;;;-1.80;60.40
30021;BME280;16861;52.294;7.760;2022-12-18T05:07:33;101024.28;;;-1.81;60.25
30021;BME280;16861;52.294;7.760;2022-12-18T05:10:00;101024.28;;;-1.81;60.31
30021;BME280;16861;52.294;7.760;2022-12-18T05:12:26;101025.16;;;-1.80;60.10
30021;BME280;16861;52.294;7.760;2022-12-18T05:14:53;101024.28;;;-1.81;60.51
30021;BME280;16861;52.294;7.760;2022-12-18T05:17:19;101014.81;;;-1.82;60.65
30021;BME280;16861;52.294;7.760;2022-12-18T05:19:46;101014.81;;;-1.82;60.17
30021;BME280;16861;52.294;7.760;2022-12-18T05:22:13;101014.81;;;-1.82;60.43
30021;BME280;16861;52.294;7.760;2022-12-18T05:24:39;101012.22;;;-1.82;60.43
30021;BME280;16861;52.294;7.760;2022-12-18T05:27:06;101012.22;;;-1.82;60.55
30021;BME280;16861;52.294;7.760;2022-12-18T05:29:32;101012.22;;;-1.82;60.24
30021;BME280;16861;52.294;7.760;2022-12-18T05:31:59;101013.09;;;-1.80;60.32
30021;BME280;16861;52.294;7.760;2022-12-18T05:34:26;101009.72;;;-1.79;60.32
30021;BME280;16861;52.294;7.760;2022-12-18T05:36:52;101003.66;;;-1.79;60.26
30021;BME280;16861;52.294;7.760;2022-12-18T05:39:19;101006.28;;;-1.78;60.37
30021;BME280;16861;52.294;7.760;2022-12-18T05:41:45;101008.00;;;-1.77;60.35
30021;BME280;16861;52.294;7.760;2022-12-18T05:44:12;101012.31;;;-1.76;60.14
30021;BME280;16861;52.294;7.760;2022-12-18T05:46:38;101016.63;;;-1.76;60.20
30021;BME280;16861;52.294;7.760;2022-12-18T05:49:06;101024.38;;;-1.75;60.49
30021;BME280;16861;52.294;7.760;2022-12-18T05:51:32;101034.69;;;-1.75;60.24
30021;BME280;16861;52.294;7.760;2022-12-18T05:53:59;101029.53;;;-1.75;60.30
30021;BME280;16861;52.294;7.760;2022-12-18T05:56:25;101031.25;;;-1.75;60.32
30021;BME280;16861;52.294;7.760;2022-12-18T05:58:53;101046.78;;;-1.74;60.37
30021;BME280;16861;52.294;7.760;2022-12-18T06:01:24;101049.38;;;-1.72;60.31
30021;BME280;16861;52.294;7.760;2022-12-18T06:03:51;101051.13;;;-1.71;60.38
30021;BME280;16861;52.294;7.760;2022-12-18T06:06:21;101047.66;;;-1.72;60.47
30021;BME280;16861;52.294;7.760;2022-12-18T06:08:49;101045.97;;;-1.69;60.36
30021;BME280;16861;52.294;7.760;2022-12-18T06:11:19;101046.78;;;-1.71;60.47
30021;BME280;16861;52.294;7.760;2022-12-18T06:13:49;101044.22;;;-1.71;60.08
30021;BME280;16861;52.294;7.760;2022-12-18T06:16:23;101049.44;;;-1.67;59.90
30021;BME280;16861;52.294;7.760;2022-12-18T06:18:49;101047.69;;;-1.68;60.24
30021;BME280;16861;52.294;7.760;2022-12-18T06:21:16;101048.56;;;-1.69;59.84
30021;BME280;16861;52.294;7.760;2022-12-18T06:23:43;101058.88;;;-1.69;60.06
30021;BME280;16861;52.294;7.760;2022-12-18T06:26:11;101064.88;;;-1.71;59.68
30021;BME280;16861;52.294;7.760;2022-12-18T06:28:38;101066.59;;;-1.71;59.73
30021;BME280;16861;52.294;7.760;2022-12-18T06:31:05;101065.72;;;-1.72;60.00
30021;BME280;16861;52.294;7.760;2022-12-18T06:33:33;101070.03;;;-1.71;59.88
30021;BME280;16861;52.294;7.760;2022-12-18T06:36:05;101070.03;;;-1.71;59.82
30021;BME280;16861;52.294;7.760;2022-12-18T06:38:33;101067.47;;;-1.72;59.87
30021;BME280;16861;52.294;7.760;2022-12-18T06:41:00;101064.00;;;-1.73;59.65
30021;BME280;16861;52.294;7.760;2022-12-18T06:43:32;101068.28;;;-1.73;60.03
30021;BME280;16861;52.294;7.760;2022-12-18T06:45:59;101082.91;;;-1.74;60.01
30021;BME280;16861;52.294;7.760;2022-12-18T06:48:27;101075.16;;;-1.75;60.07
30021;BME280;16861;52.294;7.760;2022-12-18T06:50:53;101087.19;;;-1.74;59.83
30021;BME280;16861;52.294;7.760;2022-12-18T06:53:20;101075.16;;;-1.74;60.14
30021;BME280;16861;52.294;7.760;2022-12-18T06:55:46;101076.88;;;-1.74;59.99
30021;BME280;16861;52.294;7.760;2022-12-18T06:58:13;101074.28;;;-1.74;59.96
30021;BME280;16861;52.294;7.760;2022-12-18T07:00:40;101069.13;;;-1.74;60.16
30021;BME280;16861;52.294;7.760;2022-12-18T07:03:07;101074.28;;;-1.74;60.05
30021;BME280;16861;52.294;7.760;2022-12-18T07:05:33;101070.00;;;-1.74;59.68
30021;BME280;16861;52.294;7.760;2022-12-18T07:08:00;101064.84;;;-1.74;59.88
30021;BME280;16861;52.294;7.760;2022-12-18T07:10:27;101057.94;;;-1.73;59.84
30021;BME280;16861;52.294;7.760;2022-12-18T07:12:53;101051.09;;;-1.73;60.06
30021;BME280;16861;52.294;7.760;2022-12-18T07:15:20;101057.09;;;-1.74;59.97
30021;BME280;16861;52.294;7.760;2022-12-18T07:17:46;101058.81;;;-1.73;59.57
30021;BME280;16861;52.294;7.760;2022-12-18T07:20:13;101066.56;;;-1.73;59.58
30021;BME280;16861;52.294;7.760;2022-12-18T07:22:39;101059.69;;;-1.74;59.58
30021;BME280;16861;52.294;7.760;2022-12-18T07:25:06;101059.72;;;-1.72;59.83
30021;BME280;16861;52.294;7.760;2022-12-18T07:27:33;101056.25;;;-1.73;60.03
30021;BME280;16861;52.294;7.760;2022-12-18T07:29:59;101058.84;;;-1.71;59.93
30021;BME280;16861;52.294;7.760;2022-12-18T07:32:25;101063.19;;;-1.68;59.79
30021;BME280;16861;52.294;7.760;2022-12-18T07:34:52;101058.03;;;-1.68;59.70
30021;BME280;16861;52.294;7.760;2022-12-18T07:37:18;101058.91;;;-1.68;59.59
30021;BME280;16861;52.294;7.760;2022-12-18T07:39:44;101052.00;;;-1.67;60.01
30021;BME280;16861;52.294;7.760;2022-12-18T07:42:13;101055.47;;;-1.67;60.06
30021;BME280;16861;52.294;7.760;2022-12-18T07:44:59;101053.75;;;-1.66;59.98
30021;BME280;16861;52.294;7.760;2022-12-18T07:47:27;101055.47;;;-1.67;59.57
30021;BME280;16861;52.294;7.760;2022-12-18T07:49:55;101048.56;;;-1.66;59.94
30021;BME280;16861;52.294;7.760;2022-12-18T07:52:21;101036.56;;;-1.66;59.98
30021;BME280;16861;52.294;7.760;2022-12-18T07:54:51;101036.56;;;-1.64;60.06
30021;BME280;16861;52.294;7.760;2022-12-18T07:57:18;101035.72;;;-1.63;60.09
30021;BME280;16861;52.294;7.760;2022-12-18T08:00:04;101028.88;;;-1.61;60.01
30021;BME280;16861;52.294;7.760;2022-12-18T08:02:31;101022.00;;;-1.59;60.08
30021;BME280;16861;52.294;7.760;2022-12-18T08:04:58;101018.56;;;-1.58;60.08
30021;BME280;16861;52.294;7.760;2022-12-18T08:07:24;101016.91;;;-1.56;60.13
30021;BME280;16861;52.294;7.760;2022-12-18T08:09:51;101010.88;;;-1.55;59.99
30021;BME280;16861;52.294;7.760;2022-12-18T08:12:17;101022.97;;;-1.51;59.89
30021;BME280;16861;52.294;7.760;2022-12-18T08:14:43;101026.44;;;-1.49;60.11
30021;BME280;16861;52.294;7.760;2022-12-18T08:17:10;101024.75;;;-1.47;60.41
30021;BME280;16861;52.294;7.760;2022-12-18T08:19:36;101027.41;;;-1.43;60.17
30021;BME280;16861;52.294;7.760;2022-12-18T08:22:02;101023.13;;;-1.40;60.32
30021;BME280;16861;52.294;7.760;2022-12-18T08:24:29;101036.94;;;-1.36;60.35
30021;BME280;16861;52.294;7.760;2022-12-18T08:26:55;101032.69;;;-1.33;60.17
30021;BME280;16861;52.294;7.760;2022-12-18T08:29:43;101039.63;;;-1.27;60.37
30021;BME280;16861;52.294;7.760;2022-12-18T08:32:09;101040.59;;;-1.22;60.49
30021;BME280;16861;52.294;7.760;2022-12-18T08:34:36;101043.22;;;-1.15;60.76
30021;BME280;16861;52.294;7.760;2022-12-18T08:37:02;101047.63;;;-1.10;60.47
30021;BME280;16861;52.294;7.760;2022-12-18T08:39:28;101045.94;;;-1.05;60.76
30021;BME280;16861;52.294;7.760;2022-12-18T08:41:55;101044.31;;;-0.98;60.77
30021;BME280;16861;52.294;7.760;2022-12-18T08:44:40;101043.53;;;-0.90;60.61
30021;BME280;16861;52.294;7.760;2022-12-18T08:47:07;101034.13;;;-0.84;60.56
30021;BME280;16861;52.294;7.760;2022-12-18T08:49:34;101025.56;;;-0.78;60.73
30021;BME280;16861;52.294;7.760;2022-12-18T08:52:01;101020.44;;;-0.72;60.63
30021;BME280;16861;52.294;7.760;2022-12-18T08:54:29;101016.22;;;-0.65;60.74
30021;BME280;16861;52.294;7.760;2022-12-18T08:56:55;101008.50;;;-0.60;60.53
30021;BME280;16861;52.294;7.760;2022-12-18T08:59:21;101008.56;;;-0.54;60.73
30021;BME280;16861;52.294;7.760;2022-12-18T09:01:49;101009.47;;;-0.47;60.66
30021;BME280;16861;52.294;7.760;2022-12-18T09:04:15;101007.81;;;-0.41;60.66
30021;BME280;16861;52.294;7.760;2022-12-18T09:06:42;101006.13;;;-0.35;60.67
30021;BME280;16861;52.294;7.760;2022-12-18T09:09:09;100999.28;;;-0.29;60.87
30021;BME280;16861;52.294;7.760;2022-12-18T09:11:36;100994.16;;;-0.24;60.44
30021;BME280;16861;52.294;7.760;2022-12-18T09:14:03;100994.19;;;-0.18;60.56
30021;BME280;16861;52.294;7.760;2022-12-18T09:16:31;101004.59;;;-0.13;60.34
30021;BME280;16861;52.294;7.760;2022-12-18T09:18:58;101010.63;;;-0.09;60.42
30021;BME280;16861;52.294;7.760;2022-12-18T09:21:28;101014.97;;;-0.07;60.27
30021;BME280;16861;52.294;7.760;2022-12-18T09:23:55;101017.59;;;-0.02;60.31
30021;BME280;16861;52.294;7.760;2022-12-18T09:26:23;101015.88;;;0.02;60.35
30021;BME280;16861;52.294;7.760;2022-12-18T09:28:50;101019.38;;;0.04;60.13
30021;BME280;16861;52.294;7.760;2022-12-18T09:31:18;101029.75;;;0.07;60.41
30021;BME280;16861;52.294;7.760;2022-12-18T09:33:46;101018.56;;;0.09;60.12
30021;BME280;16861;52.294;7.760;2022-12-18T09:36:15;101021.16;;;0.12;59.92
30021;BME280;16861;52.294;7.760;2022-12-18T09:38:42;101027.25;;;0.18;60.12
30021;BME280;16861;52.294;7.760;2022-12-18T09:46:44;101032.50;;;0.33;60.42
30021;BME280;16861;52.294;7.760;2022-12-18T09:49:15;101018.72;;;0.39;60.31
30021;BME280;16861;52.294;7.760;2022-12-18T09:51:46;101032.56;;;0.44;60.04
30021;BME280;16861;52.294;7.760;2022-12-18T09:54:18;101033.44;;;0.49;60.40
30021;BME280;16861;52.294;7.760;2022-12-18T09:56:46;101022.25;;;0.55;60.21
30021;BME280;16861;52.294;7.760;2022-12-18T09:59:20;101012.78;;;0.60;60.33
30021;BME280;16861;52.294;7.760;2022-12-18T10:01:47;100998.13;;;0.67;60.09
30021;BME280;16861;52.294;7.760;2022-12-18T10:04:13;100977.44;;;0.73;59.94
30021;BME280;16861;52.294;7.760;2022-12-18T10:06:54;100972.25;;;0.78;60.02
30021;BME280;16861;52.294;7.760;2022-12-18T10:09:41;100961.06;;;0.88;60.50
30021;BME280;16861;52.294;7.760;2022-12-18T10:14:51;100961.09;;;1.01;60.20
30021;BME280;16861;52.294;7.760;2022-12-18T10:19:52;100955.91;;;1.13;59.67
30021;BME280;16861;52.294;7.760;2022-12-18T10:27:39;100961.13;;;1.30;59.94
30021;BME280;16861;52.294;7.760;2022-12-18T10:30:14;100962.88;;;1.35;59.16
30021;BME280;16861;52.294;7.760;2022-12-18T10:32:41;100958.53;;;1.41;60.14
30021;BME280;16861;52.294;7.760;2022-12-18T10:35:17;100959.41;;;1.47;59.60
30021;BME280;16861;52.294;7.760;2022-12-18T10:38:03;100957.66;;;1.50;59.33
30021;BME280;16861;52.294;7.760;2022-12-18T10:40:30;100949.91;;;1.60;59.77
30021;BME280;16861;52.294;7.760;2022-12-18T10:43:05;100941.25;;;1.62;59.17
30021;BME280;16861;52.294;7.760;2022-12-18T10:45:32;100946.41;;;1.70;59.07
30021;BME280;16861;52.294;7.760;2022-12-18T10:47:58;100949.03;;;1.73;59.27
30021;BME280;16861;52.294;7.760;2022-12-18T10:50:34;100942.09;;;1.80;59.40
30021;BME280;16861;52.294;7.760;2022-12-18T10:53:25;100923.91;;;1.86;58.53
30021;BME280;16861;52.294;7.760;2022-12-18T10:55:54;100914.34;;;1.91;58.78
30021;BME280;16861;52.294;7.760;2022-12-18T11:01:06;100900.50;;;2.02;58.21
30021;BME280;16861;52.294;7.760;2022-12-18T11:06:25;100909.97;;;2.15;58.55
30021;BME280;16861;52.294;7.760;2022-12-18T11:09:00;100915.13;;;2.20;57.75
30021;BME280;16861;52.294;7.760;2022-12-18T11:11:32;100920.34;;;2.28;58.57
30021;BME280;16861;52.294;7.760;2022-12-18T11:14:04;100912.50;;;2.34;57.99
30021;BME280;16861;52.294;7.760;2022-12-18T11:16:36;100909.00;;;2.41;58.07
30021;BME280;16861;52.294;7.760;2022-12-18T11:19:32;100911.56;;;2.52;58.01
30021;BME280;16861;52.294;7.760;2022-12-18T11:22:02;100900.22;;;2.61;57.91
30021;BME280;16861;52.294;7.760;2022-12-18T11:24:32;100895.91;;;2.66;58.20
30021;BME280;16861;52.294;7.760;2022-12-18T11:27:01;100881.13;;;2.73;57.39
30021;BME280;16861;52.294;7.760;2022-12-18T11:29:39;100881.09;;;2.78;56.24
30021;BME280;16861;52.294;7.760;2022-12-18T11:34:45;100861.09;;;2.86;56.95
30021;BME280;16861;52.294;7.760;2022-12-18T11:37:15;100862.81;;;2.89;56.62
30021;BME280;16861;52.294;7.760;2022-12-18T11:39:50;100863.69;;;2.89;56.40
30021;BME280;16861;52.294;7.760;2022-12-18T11:42:24;100854.13;;;2.90;56.50
30021;BME280;16861;52.294;7.760;2022-12-18T11:45:43;100855.88;;;2.88;55.91
30021;BME280;16861;52.294;7.760;2022-12-18T11:50:25;100853.34;;;2.80;56.18
30021;BME280;16861;52.294;7.760;2022-12-18T11:52:52;100860.28;;;2.74;56.43
30021;BME280;16861;52.294;7.760;2022-12-18T11:55:37;100866.41;;;2.69;56.18
30021;BME280;16861;52.294;7.760;2022-12-18T12:01:00;100855.19;;;2.62;55.81
30021;BME280;16861;52.294;7.760;2022-12-18T12:09:04;100848.28;;;2.58;55.45
30021;BME280;16861;52.294;7.760;2022-12-18T12:14:50;100834.44;;;2.53;55.44
30021;BME280;16861;52.294;7.760;2022-12-18T12:17:45;100833.59;;;2.49;55.08
30021;BME280;16861;52.294;7.760;2022-12-18T12:20:22;100837.91;;;2.48;55.48
30021;BME280;16861;52.294;7.760;2022-12-18T12:23:18;100843.16;;;2.42;56.06
30021;BME280;16861;52.294;7.760;2022-12-18T12:25:59;100853.56;;;2.42;55.72
30021;BME280;16861;52.294;7.760;2022-12-18T12:39:30;100810.31;;;2.30;55.90
30021;BME280;16861;52.294;7.760;2022-12-18T12:41:58;100793.88;;;2.28;56.10
30021;BME280;16861;52.294;7.760;2022-12-18T12:44:47;100797.34;;;2.22;55.77
30021;BME280;16861;52.294;7.760;2022-12-18T12:47:26;100788.78;;;2.14;55.62
30021;BME280;16861;52.294;7.760;2022-12-18T12:49:56;100775.78;;;2.10;56.17
30021;BME280;16861;52.294;7.760;2022-12-18T12:52:37;100775.84;;;2.00;55.85
30021;BME280;16861;52.294;7.760;2022-12-18T12:55:17;100763.75;;;1.94;56.04
30021;BME280;16861;52.294;7.760;2022-12-18T12:58:15;100770.69;;;1.89;55.56
30021;BME280;16861;52.294;7.760;2022-12-18T13:00:54;100777.66;;;1.86;56.19
30021;BME280;16861;52.294;7.760;2022-12-18T13:03:41;100781.97;;;1.84;56.50
30021;BME280;16861;52.294;7.760;2022-12-18T13:14:31;100755.22;;;1.66;56.74
30021;BME280;16861;52.294;7.760;2022-12-18T13:22:48;100725.00;;;1.55;56.10
30021;BME280;16861;52.294;7.760;2022-12-18T13:25:36;100718.94;;;1.52;56.18
30021;BME280;16861;52.294;7.760;2022-12-18T13:28:20;100710.31;;;1.50;56.76
30021;BME280;16861;52.294;7.760;2022-12-18T13:30:57;100713.78;;;1.47;56.62
30021;BME280;16861;52.294;7.760;2022-12-18T13:38:37;100718.97;;;1.41;57.03
30021;BME280;16861;52.294;7.760;2022-12-18T13:41:26;100717.25;;;1.40;56.42
30021;BME280;16861;52.294;7.760;2022-12-18T13:43:55;100710.34;;;1.40;56.89
30021;BME280;16861;52.294;7.760;2022-12-18T13:46:30;100712.94;;;1.39;56.52
30021;BME280;16861;52.294;7.760;2022-12-18T13:51:47;100701.69;;;1.41;56.31
30021;BME280;16861;52.294;7.760;2022-12-18T13:56:47;100691.31;;;1.43;56.57
30021;BME280;16861;52.294;7.760;2022-12-18T14:01:43;100694.75;;;1.45;56.80
30021;BME280;16861;52.294;7.760;2022-12-18T14:06:49;100698.22;;;1.47;56.76
30021;BME280;16861;52.294;7.760;2022-12-18T14:09:25;100692.16;;;1.47;56.53
30021;BME280;16861;52.294;7.760;2022-12-18T14:11:53;100682.66;;;1.46;56.33
30021;BME280;16861;52.294;7.760;2022-12-18T14:14:43;100681.78;;;1.45;56.66
30021;BME280;16861;52.294;7.760;2022-12-18T14:17:11;100690.44;;;1.44;56.54
30021;BME280;16861;52.294;7.760;2022-12-18T14:19:47;100681.81;;;1.40;56.16
30021;BME280;16861;52.294;7.760;2022-12-18T14:22:18;100678.34;;;1.40;56.90
30021;BME280;16861;52.294;7.760;2022-12-18T14:24:45;100657.59;;;1.38;56.33
30021;BME280;16861;52.294;7.760;2022-12-18T14:27:23;100668.84;;;1.37;56.89
30021;BME280;16861;52.294;7.760;2022-12-18T14:29:51;100662.78;;;1.37;56.43
30021;BME280;16861;52.294;7.760;2022-12-18T14:32:19;100656.75;;;1.35;56.68
30021;BME280;16861;52.294;7.760;2022-12-18T14:34:48;100667.13;;;1.33;56.18
30021;BME280;16861;52.294;7.760;2022-12-18T14:37:20;100659.34;;;1.32;56.59
30021;BME280;16861;52.294;7.760;2022-12-18T14:40:02;100647.25;;;1.29;56.49
30021;BME280;16861;52.294;7.760;2022-12-18T14:42:37;100648.13;;;1.31;56.65
30021;BME280;16861;52.294;7.760;2022-12-18T14:45:35;100628.25;;;1.25;56.52
30021;BME280;16861;52.294;7.760;2022-12-18T14:51:00;100628.25;;;1.25;56.75
30021;BME280;16861;52.294;7.760;2022-12-18T14:53:38;100637.75;;;1.25;56.31